ΕΜΥ, Εθνική Μετεωρολογική Υπηρεσία - Δελτία Καιρού, Προγνώσεις

ΑΕΡΟΝΑΥΤΙΛΙΑ

GREEK AIRPORTS CODES

TAF LGSM 052300Z 0600/0609 19015KT 9999 SCT020 TEMPO 0603/0609 18016G26KT PROB30 TEMPO 0600/0609 5000 RA SCT012 FEW018TCU BKN020=

EUROPEAN AIRPORTS CODES

LGMG 051500Z 00000KT 9999 FEW025 16/10 Q1010=